Time;durP1;ratioP1;P1;durP2;ratioP2;P2;SDS_P1;SDS_P2;PMS_P1;PMS_P2;Temp;Humidity;BMP_temperature;BMP_pressure;BME280_temperature;BME280_humidity;BME280_pressure;Samples;Min_cycle;Max_cycle;Signal;HPM_P1;HPM_P2
2022/07/28 00:00:38;;;;;;;6.88;3.80;;;;;;;15.92;69.88;96047.56;2064967;28;20054;-36
2022/07/28 00:01:39;;;;;;;4.82;4.00;;;;;;;15.93;69.98;96044.03;2065066;28;20038;-36
2022/07/28 00:02:40;;;;;;;7.60;4.18;;;;;;;15.88;69.53;96044.34;2064537;28;20038;-36
2022/07/28 00:03:41;;;;;;;6.07;4.32;;;;;;;15.86;69.94;96043.59;2064699;28;20512;-40
2022/07/28 00:04:43;;;;;;;6.53;4.18;;;;;;;15.83;69.42;96038.56;2065016;28;20067;-35
2022/07/28 00:05:44;;;;;;;6.65;4.68;;;;;;;15.81;69.91;96042.22;2064797;28;20046;-36
2022/07/28 00:06:45;;;;;;;5.32;3.95;;;;;;;15.79;69.74;96042.31;2064928;28;20727;-38
2022/07/28 00:07:47;;;;;;;7.25;4.38;;;;;;;15.78;70.31;96035.41;2065317;28;20448;-37
2022/07/28 00:08:48;;;;;;;8.15;4.07;;;;;;;15.79;70.01;96038.88;2062859;28;20515;-40
2022/07/28 00:09:49;;;;;;;7.00;4.25;;;;;;;15.80;70.41;96035.34;2058179;28;20039;-36
2022/07/28 00:10:50;;;;;;;5.82;4.43;;;;;;;15.87;69.44;96033.94;2058096;28;20489;-38
2022/07/28 00:11:52;;;;;;;6.50;4.50;;;;;;;15.88;69.97;96033.03;2058005;28;20047;-36
2022/07/28 00:12:53;;;;;;;5.82;4.43;;;;;;;15.85;69.58;96035.81;2057354;28;20524;-37
2022/07/28 00:13:54;;;;;;;9.15;4.25;;;;;;;15.83;69.82;96032.50;2057359;28;20529;-38
2022/07/28 00:14:56;;;;;;;5.32;3.95;;;;;;;15.84;70.12;96039.41;2058095;28;20039;-37
2022/07/28 00:15:57;;;;;;;6.45;4.00;;;;;;;15.82;69.68;96036.03;2058729;28;20063;-38
2022/07/28 00:16:58;;;;;;;5.07;4.10;;;;;;;15.83;69.29;96032.50;2058250;28;20061;-39
2022/07/28 00:18:00;;;;;;;7.63;4.13;;;;;;;15.82;69.80;96028.19;2058227;28;20046;-37
2022/07/28 00:19:01;;;;;;;7.28;4.55;;;;;;;15.76;70.29;96034.69;2058127;28;20057;-37
2022/07/28 00:20:02;;;;;;;7.35;4.10;;;;;;;15.75;70.18;96032.19;2058397;28;20057;-40
2022/07/28 00:21:04;;;;;;;5.57;4.55;;;;;;;15.72;70.37;96028.00;2058671;28;20062;-36
2022/07/28 00:22:06;;;;;;;6.68;4.90;;;;;;;15.73;70.65;96023.59;2058203;28;20500;-38
2022/07/28 00:23:07;;;;;;;7.10;4.55;;;;;;;15.72;70.06;96021.91;2058064;28;20047;-36
2022/07/28 00:24:08;;;;;;;6.43;4.63;;;;;;;15.73;70.31;96026.19;2065181;28;20054;-39
2022/07/28 00:25:10;;;;;;;5.63;4.18;;;;;;;15.68;70.35;96020.41;2049621;28;20051;-37
2022/07/28 00:26:11;;;;;;;8.38;4.32;;;;;;;15.64;70.79;96027.63;2050189;28;20047;-36
2022/07/28 00:27:13;;;;;;;4.70;4.20;;;;;;;15.64;70.07;96027.63;2058636;28;20051;-38
2022/07/28 00:28:15;;;;;;;6.13;4.50;;;;;;;15.59;71.06;96027.09;2058222;28;20055;-38
2022/07/28 00:29:16;;;;;;;9.45;4.95;;;;;;;15.56;70.69;96020.28;2057793;28;20053;-35
2022/07/28 00:30:17;;;;;;;5.72;4.40;;;;;;;15.53;71.45;96022.25;2058138;28;20051;-36
2022/07/28 00:31:19;;;;;;;5.72;4.18;;;;;;;15.52;71.18;96021.41;2058021;28;20092;-40
2022/07/28 00:32:20;;;;;;;5.90;4.38;;;;;;;15.52;70.86;96017.97;2057908;28;20405;-36
2022/07/28 00:33:21;;;;;;;7.90;4.57;;;;;;;15.51;71.06;96021.53;2058524;28;20047;-37
2022/07/28 00:34:23;;;;;;;6.70;4.72;;;;;;;15.48;71.16;96014.72;2057863;28;20707;-34
2022/07/28 00:35:24;;;;;;;7.55;4.75;;;;;;;15.44;71.42;96023.69;2058192;28;20043;-35
2022/07/28 00:36:25;;;;;;;7.57;4.80;;;;;;;15.40;71.15;96017.00;2058281;28;20497;-37
2022/07/28 00:37:27;;;;;;;7.43;4.43;;;;;;;15.45;70.89;96025.41;2058030;28;20045;-37
2022/07/28 00:38:28;;;;;;;6.05;4.20;;;;;;;15.46;71.31;96016.59;2058152;28;20412;-36
2022/07/28 00:39:29;;;;;;;7.70;4.68;;;;;;;15.39;71.46;96016.16;2058086;28;20047;-40
2022/07/28 00:41:50;;;;;;;8.55;4.75;;;;;;;15.36;71.18;96020.75;2057657;28;20042;-38
2022/07/28 00:42:51;;;;;;;6.82;4.72;;;;;;;15.37;71.82;96022.41;2058030;28;20497;-39
2022/07/28 00:43:53;;;;;;;5.47;4.55;;;;;;;15.38;71.69;96021.50;2057774;28;20039;-38
2022/07/28 00:44:54;;;;;;;7.38;4.32;;;;;;;15.37;71.63;96022.41;2057315;28;20055;-36
2022/07/28 00:45:55;;;;;;;6.78;4.88;;;;;;;15.35;72.21;96021.72;2057889;28;20389;-39
2022/07/28 00:46:56;;;;;;;8.35;5.05;;;;;;;15.32;71.56;96016.69;2057464;28;20173;-36
2022/07/28 00:47:58;;;;;;;5.75;4.70;;;;;;;15.29;71.98;96016.84;2058048;28;20038;-39
2022/07/28 00:48:59;;;;;;;7.30;5.03;;;;;;;15.27;71.93;96013.53;2057794;28;20532;-38
2022/07/28 00:50:02;;;;;;;6.65;4.43;;;;;;;15.27;71.99;96009.13;2064580;28;20500;-38
2022/07/28 00:51:03;;;;;;;7.43;4.97;;;;;;;15.29;72.45;96017.72;2065903;28;20046;-39
2022/07/28 00:52:05;;;;;;;6.43;5.13;;;;;;;15.28;72.59;96020.41;2065745;28;20050;-38
2022/07/28 00:53:06;;;;;;;8.95;5.03;;;;;;;15.25;72.44;96016.22;2065692;28;20046;-37
2022/07/28 00:54:08;;;;;;;6.60;4.63;;;;;;;15.22;72.21;96014.66;2065667;28;20050;-41
2022/07/28 00:55:09;;;;;;;8.38;4.78;;;;;;;15.22;72.46;96014.66;2065766;28;20504;-39
2022/07/28 00:56:10;;;;;;;7.05;5.18;;;;;;;15.21;72.40;96010.38;2065917;28;20452;-38
2022/07/28 00:57:12;;;;;;;6.93;5.07;;;;;;;15.17;72.65;96013.28;2066179;28;20061;-38
2022/07/28 00:58:13;;;;;;;6.40;4.57;;;;;;;15.13;73.04;96009.16;2065783;28;20408;-36
2022/07/28 00:59:14;;;;;;;6.40;5.18;;;;;;;15.11;73.30;96011.06;2065982;28;20054;-39
2022/07/28 01:00:16;;;;;;;7.13;5.03;;;;;;;15.12;73.51;96010.94;2065879;28;20046;-38
2022/07/28 01:01:18;;;;;;;7.28;4.70;;;;;;;15.16;73.16;96014.22;2065195;28;20057;-36
2022/07/28 01:02:19;;;;;;;7.40;4.45;;;;;;;15.16;72.54;96007.22;2065166;28;20042;-38
2022/07/28 01:03:22;;;;;;;8.23;5.40;;;;;;;15.15;72.99;96008.13;2064940;28;20043;-37
2022/07/28 01:04:23;;;;;;;6.05;4.57;;;;;;;15.13;73.11;96010.03;2064974;28;20042;-37
2022/07/28 01:05:25;;;;;;;7.13;4.85;;;;;;;15.15;72.81;96013.38;2065015;28;20042;-39
2022/07/28 01:06:48;;;;;;;7.70;5.13;;;;;;;15.14;73.26;96006.47;2041604;29;20062;-37
2022/07/28 01:08:05;;;;;;;8.98;5.63;;;;;;;15.18;73.27;95999.25;2055354;28;20068;-37
2022/07/28 01:09:25;;;;;;;6.95;5.15;;;;;;;15.20;73.02;96002.59;2065714;28;20105;-36
2022/07/28 01:10:35;;;;;;;5.93;5.25;;;;;;;15.19;73.06;95995.72;2066080;28;20224;-39
2022/07/28 01:12:01;;;;;;;9.63;5.38;;;;;;;15.16;72.65;95998.53;2065603;28;20502;-40
2022/07/28 01:13:47;;;;;;;6.85;5.15;;;;;;;15.12;73.00;95999.66;2065331;28;20580;-38
2022/07/28 01:14:49;;;;;;;10.15;5.05;;;;;;;15.07;73.01;95989.50;2064558;28;20054;-36
2022/07/28 01:15:54;;;;;;;8.93;5.40;;;;;;;15.08;73.70;95998.19;2064651;28;20049;-41
2022/07/28 01:17:01;;;;;;;9.00;5.00;;;;;;;15.06;73.80;95995.66;2064890;28;20065;-37
2022/07/28 01:18:27;;;;;;;6.57;5.18;;;;;;;15.05;73.68;95996.63;2065178;28;20172;-38
2022/07/28 01:19:40;;;;;;;7.43;5.15;;;;;;;15.03;73.57;95989.81;2059173;28;20528;-34
2022/07/28 01:20:48;;;;;;;6.18;5.18;;;;;;;14.99;74.12;95986.53;2065661;28;20049;-38
2022/07/28 01:21:50;;;;;;;8.07;5.30;;;;;;;15.02;73.91;95985.50;2065488;28;20049;-38
2022/07/28 01:22:57;;;;;;;6.88;5.30;;;;;;;15.04;73.78;95979.22;2065598;28;20496;-40
2022/07/28 01:23:58;;;;;;;7.47;5.28;;;;;;;15.02;74.09;95985.50;2065870;28;20424;-38
2022/07/28 01:25:06;;;;;;;6.68;5.28;;;;;;;15.01;73.67;95987.28;2065557;28;20061;-38
2022/07/28 01:26:16;;;;;;;7.00;5.45;;;;;;;15.04;74.20;95986.25;2065602;28;20042;-37
2022/07/28 01:27:49;;;;;;;9.50;5.35;;;;;;;14.99;73.75;95992.63;2064946;28;20495;-39
2022/07/28 01:29:19;;;;;;;7.45;5.43;;;;;;;15.00;74.26;95985.63;2057561;28;20516;-37
2022/07/28 01:30:30;;;;;;;7.20;5.30;;;;;;;14.99;74.46;95987.41;2064636;28;20117;-38
2022/07/28 01:31:41;;;;;;;6.65;5.18;;;;;;;14.97;73.67;95983.19;2065156;28;20053;-36
2022/07/28 01:32:45;;;;;;;8.05;5.03;;;;;;;14.97;74.49;95986.66;2064663;28;20061;-36
2022/07/28 01:33:48;;;;;;;8.55;5.47;;;;;;;14.96;74.48;95982.34;2057046;28;20493;-38
2022/07/28 01:35:18;;;;;;;8.60;5.55;;;;;;;14.96;74.33;95979.72;2056583;28;20544;-37
2022/07/28 01:36:25;;;;;;;6.95;5.25;;;;;;;14.90;74.47;95974.91;2057229;28;20050;-37
2022/07/28 01:37:28;;;;;;;8.35;5.45;;;;;;;14.87;74.92;95972.50;2056921;28;20054;-38
2022/07/28 01:38:31;;;;;;;7.13;5.60;;;;;;;14.89;75.06;95977.59;2056430;28;20437;-38
2022/07/28 01:39:34;;;;;;;6.78;5.45;;;;;;;14.88;74.94;95971.53;2057018;28;20045;-36
2022/07/28 01:40:35;;;;;;;6.68;5.30;;;;;;;14.84;75.24;95977.91;2056594;28;20409;-36
2022/07/28 01:41:37;;;;;;;8.02;5.05;;;;;;;14.83;74.84;95976.22;2048931;29;20051;-38
2022/07/28 01:42:40;;;;;;;7.15;5.78;;;;;;;14.81;75.28;95972.03;2041283;28;20051;-39
2022/07/28 01:43:44;;;;;;;9.85;5.88;;;;;;;14.78;75.58;95973.94;2048836;28;20043;-38
2022/07/28 01:44:46;;;;;;;7.18;6.00;;;;;;;14.77;75.44;95963.56;2056469;28;20059;-37
2022/07/28 01:45:47;;;;;;;8.68;5.40;;;;;;;14.80;75.74;95972.97;2064716;28;20409;-37
2022/07/28 01:46:48;;;;;;;8.25;6.03;;;;;;;14.80;75.16;95967.75;2064778;28;20566;-36
2022/07/28 01:47:50;;;;;;;8.02;5.40;;;;;;;14.78;75.48;95970.44;2056557;28;20047;-37
2022/07/28 01:48:52;;;;;;;9.25;6.03;;;;;;;14.75;75.62;95968.91;2064923;28;20038;-38
2022/07/28 01:49:54;;;;;;;6.40;5.63;;;;;;;14.71;76.03;95972.63;2055827;28;20051;-37
2022/07/28 01:50:55;;;;;;;7.28;5.93;;;;;;;14.70;75.58;95970.97;2041293;28;20636;-35
2022/07/28 01:51:57;;;;;;;6.55;5.50;;;;;;;14.69;76.06;95968.44;2056607;28;20034;-38
2022/07/28 01:52:58;;;;;;;7.97;5.65;;;;;;;14.65;76.31;95969.56;2064680;28;20054;-37
2022/07/28 01:53:59;;;;;;;8.23;5.65;;;;;;;14.62;76.44;95967.16;2056355;28;20051;-37
2022/07/28 01:55:01;;;;;;;10.38;5.85;;;;;;;14.57;76.72;95967.47;2056586;28;20614;-40
2022/07/28 01:56:02;;;;;;;7.90;5.35;;;;;;;14.56;76.75;95966.59;2056250;28;20413;-38
2022/07/28 01:57:04;;;;;;;7.68;5.68;;;;;;;14.61;76.36;95963.69;2048828;28;20505;-38
2022/07/28 01:58:05;;;;;;;7.20;6.30;;;;;;;14.62;76.50;95965.41;2056340;28;20528;-37
2022/07/28 01:59:08;;;;;;;7.47;5.40;;;;;;;14.62;76.56;95962.78;2056773;28;20055;-39
2022/07/28 02:00:11;;;;;;;8.63;6.60;;;;;;;14.61;76.77;95966.31;2057139;28;20058;-38
2022/07/28 02:01:15;;;;;;;7.18;5.82;;;;;;;14.59;76.34;95968.19;2064720;28;20046;-39
2022/07/28 02:02:16;;;;;;;8.15;6.47;;;;;;;14.63;76.20;95972.28;2064118;28;20050;-36
2022/07/28 02:03:18;;;;;;;7.18;5.82;;;;;;;14.66;76.19;95968.66;2056999;28;20081;-37
2022/07/28 02:04:20;;;;;;;6.82;5.78;;;;;;;14.64;75.93;95962.66;2056441;28;20047;-39
2022/07/28 02:05:21;;;;;;;9.77;6.03;;;;;;;14.60;76.13;95962.03;2056806;28;20060;-39
2022/07/28 02:06:22;;;;;;;8.77;6.47;;;;;;;14.62;76.65;95967.16;2056650;28;20536;-36
2022/07/28 02:07:24;;;;;;;8.70;6.10;;;;;;;14.60;76.51;95964.66;2057093;28;20042;-37
2022/07/28 02:08:25;;;;;;;7.57;6.40;;;;;;;14.59;76.82;95962.94;2056477;28;20038;-37
2022/07/28 02:09:26;;;;;;;8.05;6.03;;;;;;;14.56;76.41;95956.16;2057226;28;20058;-37
2022/07/28 02:10:28;;;;;;;7.13;5.90;;;;;;;14.57;77.27;95964.84;2056518;28;20038;-38
2022/07/28 02:11:38;;;;;;;8.48;6.68;;;;;;;14.56;76.70;95957.94;2056590;28;20042;-36
2022/07/28 02:12:40;;;;;;;9.88;6.22;;;;;;;14.54;76.86;95955.44;2056656;28;20053;-36
2022/07/28 02:13:41;;;;;;;8.18;6.07;;;;;;;14.54;76.94;95952.81;2056510;28;20039;-37
2022/07/28 02:14:43;;;;;;;8.43;6.60;;;;;;;14.51;76.98;95955.59;2056787;28;20050;-37
2022/07/28 02:15:44;;;;;;;9.18;6.10;;;;;;;14.53;76.88;95955.50;2064557;28;20492;-37
2022/07/28 02:16:50;;;;;;;8.35;6.35;;;;;;;14.52;77.05;95953.81;2057231;28;20047;-36
2022/07/28 02:17:51;;;;;;;8.98;6.53;;;;;;;14.52;76.66;95953.81;2056571;28;20038;-37
2022/07/28 02:18:54;;;;;;;9.23;6.82;;;;;;;14.51;76.91;95952.13;2064681;28;20129;-37
2022/07/28 02:19:56;;;;;;;10.45;6.38;;;;;;;14.48;77.32;95953.16;2056841;28;20545;-39
2022/07/28 02:20:59;;;;;;;8.75;7.28;;;;;;;14.48;77.59;95954.94;2048073;28;20113;-38
2022/07/28 02:22:00;;;;;;;9.27;6.53;;;;;;;14.47;77.80;95953.25;2056311;28;20047;-38
2022/07/28 02:23:01;;;;;;;8.43;6.30;;;;;;;14.43;77.59;95947.38;2056719;28;20043;-37
2022/07/28 02:24:03;;;;;;;8.85;6.75;;;;;;;14.37;77.91;95947.78;2048372;28;20061;-38
2022/07/28 02:25:05;;;;;;;7.10;6.40;;;;;;;14.38;77.63;95946.84;2064739;28;20061;-38
2022/07/28 02:26:08;;;;;;;8.60;6.70;;;;;;;14.37;77.70;95949.56;2064022;28;20042;-40
2022/07/28 02:27:38;;;;;;;10.18;6.20;;;;;;;14.36;77.95;95951.31;2057449;28;20051;-37
2022/07/28 02:28:42;;;;;;;9.05;7.07;;;;;;;14.33;78.01;95952.34;2056610;28;20065;-38
2022/07/28 02:29:46;;;;;;;9.07;6.55;;;;;;;14.34;78.00;95950.59;2057206;28;20420;-38
2022/07/28 02:30:52;;;;;;;8.93;6.30;;;;;;;14.32;78.41;95953.28;2056167;28;20043;-37
2022/07/28 02:31:59;;;;;;;9.43;7.28;;;;;;;14.31;78.33;95948.16;2048170;28;20517;-38
2022/07/28 02:33:03;;;;;;;7.72;6.47;;;;;;;14.28;78.35;95949.19;2057252;28;20445;-38
2022/07/28 02:34:04;;;;;;;8.50;7.25;;;;;;;14.25;78.46;95949.41;2063561;28;20050;-38
2022/07/28 02:35:14;;;;;;;10.90;7.35;;;;;;;14.24;78.55;95952.09;2048113;29;20556;-37
2022/07/28 02:36:27;;;;;;;7.20;6.15;;;;;;;14.24;78.31;95950.31;2049757;28;20055;-39
2022/07/28 02:37:33;;;;;;;10.98;7.20;;;;;;;14.24;78.82;95937.25;2056024;28;20051;-36
2022/07/28 02:38:38;;;;;;;7.65;6.85;;;;;;;14.23;78.45;95946.03;2048466;29;20055;-37
2022/07/28 02:39:44;;;;;;;10.15;7.15;;;;;;;14.21;78.68;95947.88;2041783;28;20047;-32
2022/07/28 02:40:46;;;;;;;10.00;7.30;;;;;;;14.21;79.07;95945.28;2064260;28;20050;-38
2022/07/28 02:41:47;;;;;;;14.13;7.72;;;;;;;14.21;79.11;95941.84;2048652;28;20051;-39
2022/07/28 02:42:48;;;;;;;9.07;6.93;;;;;;;14.16;78.96;95943.88;2040193;28;20243;-37
2022/07/28 02:43:51;;;;;;;8.52;7.57;;;;;;;14.17;78.81;95943.81;2055818;28;20042;-38
2022/07/28 02:44:57;;;;;;;8.73;6.57;;;;;;;14.21;78.68;95947.06;2040012;29;20052;-38
2022/07/28 02:46:00;;;;;;;8.27;6.80;;;;;;;14.20;78.97;95945.41;2041171;28;20062;-37
2022/07/28 02:47:02;;;;;;;9.95;7.20;;;;;;;14.19;78.76;95947.13;2055600;28;20043;-37
2022/07/28 02:48:06;;;;;;;8.43;6.85;;;;;;;14.20;78.84;95946.22;2040464;29;20083;-40
2022/07/28 02:49:24;;;;;;;10.50;7.43;;;;;;;14.20;78.75;95945.41;2048449;28;20113;-39
2022/07/28 02:50:26;;;;;;;8.30;7.32;;;;;;;14.18;79.08;95945.47;2056115;28;20440;-38
2022/07/28 02:51:27;;;;;;;11.00;7.20;;;;;;;14.19;78.92;95946.31;2063563;28;20536;-39
2022/07/28 02:52:29;;;;;;;9.52;7.55;;;;;;;14.18;78.93;95950.69;2055904;28;20058;-36
2022/07/28 02:53:30;;;;;;;9.75;7.60;;;;;;;14.19;79.25;95951.53;2056159;28;20065;-37
2022/07/28 02:54:31;;;;;;;10.20;7.40;;;;;;;14.20;78.97;95953.22;2040919;28;20082;-39
2022/07/28 02:55:32;;;;;;;12.05;7.70;;;;;;;14.18;79.71;95949.88;2047962;29;20047;-38
2022/07/28 02:56:34;;;;;;;8.85;7.80;;;;;;;14.14;79.38;95946.63;2040371;29;20051;-36
2022/07/28 02:57:35;;;;;;;10.18;7.50;;;;;;;14.15;79.68;95952.66;2040076;29;20442;-37
2022/07/28 02:58:36;;;;;;;8.40;7.35;;;;;;;14.11;78.99;95949.38;2040453;29;20054;-38
2022/07/28 02:59:37;;;;;;;12.35;7.47;;;;;;;14.08;79.66;95949.59;2032418;29;20055;-38
2022/07/28 03:00:39;;;;;;;8.07;7.28;;;;;;;14.08;79.57;95941.75;2048235;28;20055;-36
2022/07/28 03:01:41;;;;;;;9.48;7.65;;;;;;;14.05;80.05;95944.56;2055622;28;20054;-38
2022/07/28 03:02:45;;;;;;;9.45;7.32;;;;;;;14.01;79.70;95943.09;2048203;28;20560;-38
2022/07/28 03:03:47;;;;;;;12.38;8.52;;;;;;;13.98;80.08;95946.72;2039511;29;20051;-38
2022/07/28 03:04:55;;;;;;;8.57;7.45;;;;;;;14.00;79.98;95949.22;2033034;29;20056;-39
2022/07/28 03:05:56;;;;;;;9.02;7.30;;;;;;;13.99;80.16;95952.78;2049625;28;20043;-38
2022/07/28 03:06:57;;;;;;;9.68;7.60;;;;;;;13.96;80.26;95958.19;2056059;28;20421;-38
2022/07/28 03:07:59;;;;;;;10.45;7.85;;;;;;;13.95;80.62;95956.50;2055719;28;20047;-37
2022/07/28 03:09:00;;;;;;;9.48;8.15;;;;;;;13.98;80.14;95956.31;2056105;28;20057;-39
2022/07/28 03:10:02;;;;;;;9.85;7.75;;;;;;;13.98;80.17;95951.94;2040614;29;20044;-38
2022/07/28 03:11:07;;;;;;;8.82;7.90;;;;;;;13.99;80.42;95955.38;2048313;28;20051;-39
2022/07/28 03:12:09;;;;;;;11.93;8.10;;;;;;;13.94;80.44;95950.44;2063085;28;20117;-37
2022/07/28 03:13:10;;;;;;;10.68;7.90;;;;;;;13.99;80.22;95944.94;2064108;28;20520;-38
2022/07/28 03:14:11;;;;;;;11.45;7.60;;;;;;;13.96;80.25;95951.19;2056046;28;20416;-36
2022/07/28 03:15:13;;;;;;;11.93;8.65;;;;;;;13.95;80.39;95953.88;2048202;28;20058;-37
2022/07/28 03:16:14;;;;;;;9.48;8.30;;;;;;;13.93;80.40;95955.78;2055574;28;20054;-38
2022/07/28 03:17:16;;;;;;;10.02;8.30;;;;;;;13.90;80.54;95959.41;2056426;28;20050;-37
2022/07/28 03:18:17;;;;;;;10.05;8.13;;;;;;;13.87;80.79;95955.22;2063824;28;20763;-36
2022/07/28 03:19:18;;;;;;;10.65;8.88;;;;;;;13.85;81.08;95954.47;2064434;28;20081;-38
2022/07/28 03:20:19;;;;;;;10.95;7.97;;;;;;;13.82;81.33;95952.03;2064211;28;20098;-37
2022/07/28 03:21:20;;;;;;;10.82;8.55;;;;;;;13.81;81.26;95954.72;2064239;28;20057;-39
2022/07/28 03:22:22;;;;;;;10.50;8.05;;;;;;;13.78;80.95;95950.53;2055798;28;20434;-37
2022/07/28 03:23:28;;;;;;;10.02;7.82;;;;;;;13.74;81.49;95950.81;2056019;28;20050;-38
2022/07/28 03:24:31;;;;;;;11.13;8.32;;;;;;;13.75;81.54;95955.94;2054969;28;20054;-37
2022/07/28 03:25:38;;;;;;;11.48;8.70;;;;;;;13.74;81.50;95948.19;2056707;28;20531;-37
2022/07/28 03:26:41;;;;;;;14.57;8.90;;;;;;;13.71;81.48;95948.38;2054972;28;20496;-37
2022/07/28 03:27:45;;;;;;;10.20;8.98;;;;;;;13.70;81.78;95954.53;2048036;28;20051;-38
2022/07/28 03:28:46;;;;;;;15.43;9.20;;;;;;;13.72;81.69;95955.31;2055900;28;20448;-38
2022/07/28 03:29:49;;;;;;;10.85;9.50;;;;;;;13.73;81.75;95957.78;2056086;28;20520;-38
2022/07/28 03:30:54;;;;;;;11.98;9.15;;;;;;;13.71;81.71;95954.44;2056453;28;20043;-38
2022/07/28 03:31:55;;;;;;;10.65;8.68;;;;;;;13.74;81.64;95948.19;2055747;28;20050;-39
2022/07/28 03:32:59;;;;;;;13.10;9.07;;;;;;;13.74;81.70;95953.41;2063810;28;20708;-37
2022/07/28 03:34:00;;;;;;;10.55;8.65;;;;;;;13.75;81.83;95958.56;2063377;28;20065;-37
2022/07/28 03:35:03;;;;;;;10.38;8.27;;;;;;;13.77;81.92;95961.09;2064058;28;20046;-38
2022/07/28 03:36:08;;;;;;;10.75;8.63;;;;;;;13.75;81.74;95965.53;2063631;28;20436;-38
2022/07/28 03:37:11;;;;;;;11.07;8.85;;;;;;;13.70;82.07;95950.16;2056186;28;20054;-39
2022/07/28 03:38:14;;;;;;;10.25;9.15;;;;;;;13.70;82.11;95952.75;2063775;28;20062;-37
2022/07/28 03:39:16;;;;;;;12.48;9.50;;;;;;;13.71;81.94;95956.22;2063027;28;20065;-38
2022/07/28 03:40:17;;;;;;;12.02;9.27;;;;;;;13.68;82.27;95963.31;2048132;29;20552;-36
2022/07/28 03:41:18;;;;;;;10.15;8.93;;;;;;;13.68;82.16;95960.72;2056001;28;20057;-37
2022/07/28 03:42:20;;;;;;;11.10;9.80;;;;;;;13.66;81.86;95959.13;2063323;28;20050;-39
2022/07/28 03:43:22;;;;;;;10.70;9.45;;;;;;;13.64;82.49;95961.81;2057143;28;20058;-38
2022/07/28 03:44:23;;;;;;;10.80;9.57;;;;;;;13.65;82.41;95962.63;2064976;28;20054;-39
2022/07/28 03:45:25;;;;;;;13.23;10.27;;;;;;;13.64;82.64;95969.63;2041051;29;20074;-36
2022/07/28 03:46:26;;;;;;;11.57;10.13;;;;;;;13.63;82.53;95964.50;2042019;28;20051;-37
2022/07/28 03:47:29;;;;;;;11.27;9.80;;;;;;;13.65;82.70;95963.47;2056745;28;20055;-37
2022/07/28 03:48:30;;;;;;;12.95;10.35;;;;;;;13.66;82.49;95961.72;2056929;28;20081;-39
2022/07/28 03:49:32;;;;;;;11.60;9.82;;;;;;;13.68;82.37;95962.44;2060649;28;20050;-37
2022/07/28 03:50:33;;;;;;;11.20;9.57;;;;;;;13.68;82.48;95957.22;2049027;28;20521;-36
2022/07/28 03:51:34;;;;;;;16.02;10.57;;;;;;;13.66;82.49;95961.72;2057114;28;20047;-38
2022/07/28 03:52:35;;;;;;;16.80;10.60;;;;;;;13.63;82.81;95960.13;2056820;28;20042;-37
2022/07/28 03:53:36;;;;;;;14.23;10.45;;;;;;;13.63;82.52;95961.88;2049854;28;20051;-39
2022/07/28 03:54:38;;;;;;;12.30;9.95;;;;;;;13.63;82.50;95967.09;2049533;29;20537;-40
2022/07/28 03:55:39;;;;;;;12.88;9.77;;;;;;;13.62;82.37;95962.81;2033427;28;20048;-37
2022/07/28 03:56:40;;;;;;;11.00;9.57;;;;;;;13.61;82.53;95961.16;2042176;29;20047;-38
2022/07/28 03:57:41;;;;;;;12.98;10.63;;;;;;;13.62;82.45;95968.88;2049615;28;20110;-38
2022/07/28 03:58:43;;;;;;;12.15;10.27;;;;;;;13.60;82.83;95965.50;2057040;28;20055;-39
2022/07/28 03:59:44;;;;;;;13.80;11.18;;;;;;;13.60;82.97;95962.06;2049169;28;20599;-39
2022/07/28 04:00:46;;;;;;;15.52;10.93;;;;;;;13.60;83.09;95962.06;2041862;28;20059;-35
2022/07/28 04:01:48;;;;;;;12.15;9.63;;;;;;;13.59;82.87;95963.84;2049932;28;20055;-37
2022/07/28 04:02:49;;;;;;;11.82;10.15;;;;;;;13.59;83.25;95961.25;2065384;28;20042;-37
2022/07/28 04:03:50;;;;;;;12.90;11.13;;;;;;;13.59;83.03;95963.00;2065342;28;20046;-39
2022/07/28 04:04:51;;;;;;;13.85;11.43;;;;;;;13.58;83.10;95958.72;2049102;29;20058;-38
2022/07/28 04:05:54;;;;;;;14.07;11.52;;;;;;;13.57;82.98;95960.47;2049269;28;20565;-40
2022/07/28 04:06:55;;;;;;;13.27;10.43;;;;;;;13.58;83.02;95961.31;2049205;28;20062;-38
2022/07/28 04:07:56;;;;;;;13.00;10.32;;;;;;;13.59;82.94;95963.00;2057124;28;20054;-40
2022/07/28 04:08:58;;;;;;;14.75;11.35;;;;;;;13.60;83.01;95965.50;2057173;28;20473;-37
2022/07/28 04:09:59;;;;;;;16.02;11.35;;;;;;;13.60;83.30;95959.47;2041568;28;20074;-37
2022/07/28 04:11:00;;;;;;;12.90;10.55;;;;;;;13.63;82.90;95956.66;2049610;28;20059;-36
2022/07/28 04:12:02;;;;;;;12.75;10.05;;;;;;;13.62;82.99;95961.06;2049353;28;20055;-36
2022/07/28 04:13:03;;;;;;;11.95;10.73;;;;;;;13.62;82.96;95965.44;2049149;28;20062;-38
2022/07/28 04:14:04;;;;;;;14.15;11.25;;;;;;;13.58;83.43;95959.56;2057212;28;20049;-39
2022/07/28 04:15:12;;;;;;;13.93;10.18;;;;;;;13.58;83.28;95962.19;2057388;28;20042;-38
2022/07/28 04:17:47;;;;;;;15.98;10.98;;;;;;;13.59;83.24;95956.03;2046193;28;20089;-45
2022/07/28 04:18:48;;;;;;;13.68;10.98;;;;;;;13.60;83.36;95962.91;2049160;29;20051;-45
2022/07/28 04:19:49;;;;;;;13.73;10.95;;;;;;;13.62;83.30;95962.81;2049568;28;20055;-43
2022/07/28 04:20:51;;;;;;;14.77;11.77;;;;;;;13.61;83.32;95959.38;2057181;28;20596;-45
2022/07/28 04:21:52;;;;;;;15.35;11.00;;;;;;;13.64;83.26;95961.81;2049466;28;20480;-45
2022/07/28 04:22:53;;;;;;;16.50;11.70;;;;;;;13.65;83.13;95970.47;2057115;28;20074;-47
2022/07/28 04:23:54;;;;;;;13.13;11.45;;;;;;;13.64;83.10;95968.81;2057324;28;20057;-42
2022/07/28 04:24:55;;;;;;;15.00;11.10;;;;;;;13.64;83.18;95967.03;2049096;29;20432;-45
2022/07/28 04:25:57;;;;;;;14.73;12.02;;;;;;;13.63;83.42;95967.09;2049427;29;20055;-45
2022/07/28 04:26:58;;;;;;;15.48;10.82;;;;;;;13.66;82.76;95967.78;2049449;28;20054;-45
2022/07/28 04:28:01;;;;;;;12.95;10.52;;;;;;;13.67;83.30;95969.44;2041532;29;20312;-44
2022/07/28 04:29:02;;;;;;;11.57;10.32;;;;;;;13.69;82.71;95966.75;2048833;29;20581;-44
2022/07/28 04:30:05;;;;;;;14.20;11.82;;;;;;;13.72;82.93;95968.34;2033867;28;20063;-46
2022/07/28 04:31:06;;;;;;;14.20;12.20;;;;;;;13.70;83.55;95968.44;2041256;29;20522;-41
2022/07/28 04:32:07;;;;;;;16.80;12.23;;;;;;;13.72;82.98;95968.34;2049089;28;20410;-45
2022/07/28 04:33:08;;;;;;;14.75;12.15;;;;;;;13.76;82.98;95969.81;2048953;29;20055;-47
2022/07/28 04:34:09;;;;;;;15.90;12.02;;;;;;;13.82;82.98;95972.91;2057481;28;20047;-45
2022/07/28 04:35:11;;;;;;;15.52;11.75;;;;;;;13.81;83.04;95971.22;2057433;28;20046;-45
2022/07/28 04:36:12;;;;;;;14.35;11.80;;;;;;;13.83;82.57;95974.59;2049654;28;20580;-46
2022/07/28 04:37:14;;;;;;;14.73;12.23;;;;;;;13.87;82.85;95976.09;2056830;28;20551;-44
2022/07/28 04:38:16;;;;;;;14.63;11.30;;;;;;;13.89;82.53;95979.44;2049031;28;20055;-44
2022/07/28 04:39:18;;;;;;;14.13;11.18;;;;;;;13.94;82.16;95981.75;2033791;29;20059;-43
2022/07/28 04:40:19;;;;;;;18.05;11.50;;;;;;;13.94;82.63;95980.94;2049090;28;20417;-42
2022/07/28 04:41:20;;;;;;;15.25;11.65;;;;;;;13.97;82.14;95975.53;2064970;28;20046;-48
2022/07/28 04:42:21;;;;;;;14.88;11.82;;;;;;;13.98;82.20;95983.28;2064744;28;20427;-45
2022/07/28 04:43:22;;;;;;;13.30;11.30;;;;;;;14.04;82.21;95982.06;2041978;28;20055;-46
2022/07/28 04:44:24;;;;;;;16.10;11.23;;;;;;;14.04;82.15;95972.44;2033720;29;20526;-44
2022/07/28 04:45:25;;;;;;;13.85;11.75;;;;;;;14.08;81.83;95976.53;2049216;28;20094;-46
2022/07/28 04:46:26;;;;;;;15.02;12.77;;;;;;;14.09;81.82;95980.84;2040396;29;20635;-47
2022/07/28 04:47:28;;;;;;;13.35;11.30;;;;;;;14.12;81.80;95980.66;2041475;28;20549;-45
2022/07/28 04:48:29;;;;;;;15.23;12.25;;;;;;;14.15;81.82;95984.00;2041925;28;20434;-44
2022/07/28 04:49:30;;;;;;;14.18;11.30;;;;;;;14.19;81.50;95977.66;2048819;28;20050;-46
2022/07/28 04:50:32;;;;;;;12.48;11.18;;;;;;;14.22;81.69;95980.94;2049316;28;20043;-45
2022/07/28 04:51:34;;;;;;;15.23;12.18;;;;;;;14.27;81.49;95978.88;2049044;29;20112;-46
2022/07/28 04:52:37;;;;;;;15.05;12.57;;;;;;;14.28;81.16;95985.75;2048866;28;20043;-45
2022/07/28 04:53:38;;;;;;;13.68;11.95;;;;;;;14.25;81.21;95987.75;2048896;28;20086;-44
2022/07/28 04:54:39;;;;;;;14.95;12.52;;;;;;;14.30;81.24;95983.91;2047860;28;20047;-44
2022/07/28 04:55:40;;;;;;;12.35;10.88;;;;;;;14.33;81.21;95988.94;2056695;28;20401;-44
2022/07/28 04:56:41;;;;;;;14.90;12.15;;;;;;;14.36;81.10;95987.06;2049232;28;20046;-44
2022/07/28 04:57:43;;;;;;;16.80;12.68;;;;;;;14.35;80.95;95988.81;2041547;28;20421;-46
2022/07/28 04:58:44;;;;;;;14.93;11.85;;;;;;;14.40;80.96;95988.53;2048689;28;20425;-45